Superior, WY (82945)

7:22 PM MDT on September 02, 2014 (GMT -0600)
Rock Springs-Sweetwater | Change Station
CLOSE
Current Station
Airport
Location: Rock Springs,
Elevation: 6759 ft
Nearby Weather Stations
Active Advisory: Fire Weather Warning

Elev 6759 ft 41.59 °N, 109.05 °W | Updated 28 minutes ago

Clear
Clear
76 °F
Feels Like 76 °F
N
24
Wind Variable Wind from West
Gusts 39 mph

Today
High -- | Low -- °F
--% Chance of Precip.
Yesterday
High -- | Low -- °F
Precip. -- in
6:42 AM 7:47 PM
First Quarter, 57% visible
Pressure 29.79 in
Visibility 10.0 miles
Clouds Clear
Dew Point 29 °F
Humidity 18%
Rainfall 0.00 in
Snow Depth Not available.
UV 1 out of 12
Pollen 8.10 out of 12
Air Quality Not available.
Flu Activity Not available.
METAR KRKS 030054Z AUTO 28021G34KT 10SM CLR 24/M02 A3001 RMK AO2 PK WND 28034/0049 SLP088 T02441017

More Conditions Fewer Conditions

Pressure 29.79 in
Visibility 10.0 miles
Clouds Clear
Dew Point 29 °F
Humidity 18%
Rainfall 0.00 in
Snow Depth Not available.
UV 1 out of 12
Pollen 8.10 out of 12
Air Quality Not available.
Flu Activity Not available.
METAR KRKS 030054Z AUTO 28021G34KT 10SM CLR 24/M02 A3001 RMK AO2 PK WND 28034/0049 SLP088 T02441017

More Conditions Fewer Conditions

10-Day Weather Forecast

Almanac

Astronomy

Sep. 02, 2014 Rise Set
Actual Time 6:42 AM MDT 7:47 PM MDT
Civil Twilight 6:14 AM MDT 8:15 PM MDT
Nautical Twilight 5:40 AM MDT 8:49 PM MDT
Astronomical Twilight 5:04 AM MDT 9:25 PM MDT
Moon 2:36 PM MDT (9/2) No Moon Set
Length of Visible Light 14h 01m
Length of Day
13h 04m
Tomorrow will be 2m 41s shorter.
First Quarter, 57% of the Moon is Illuminated
Today
First Quarter
Sep 8
Full
Sep 15
Last Quarter
Sep 24
New
Oct 1
First Quarter

Today's Extremes

State Highs State Lows

Community

WunderPhotos

Upload Photos

1,749,826 photos uploaded!

Nearby

Snow Depth

Station Depth Elevation
South Pass 0 in 9040 ft
Big Sandy Opening 0 in 9080 ft
Old Battle 0 in 9920 ft
Blind Bull Summit 1 in 8900 ft
Gunsight Pass 3 in 9820 ft

Earthquake Activity

City Distance Mag. Time & Date
No recent earthquake activity has been reported nearby.
Minimum magnitude displayed is 2.5.

Coastal Water Temperatures

Place Temperature
No Stations Reporting

Nearby Weather Stations